Tiempo atmosférico en la estación meteorológica de Las Cabezas de San Juan, Sevilla (105 m.)



Fecha
DESCASC
Temp. máxima en grados centígrados (hora)
DESCASC
Temp. mínima en grados centígrados (hora)
DESCASC
Temp. media en grados centígrados
DESCASC
Racha de viento máxima en m/sg (hora)
DESCASC
Velocidad máxima media en intervalos de 10 minutos(hora)
DESCASC
Precipitaciones diarias en mm
DESCASC
Precipitaciones de 00:00 a 06:00 en mm
DESCASC
Precipitaciones de 06:00 a 12:00 en mm
DESCASC
Precipitaciones de 12:00 a 18:00 en mm
DESCASC
Precipitaciones de 18:00 a 24:00 en mm
DESCASC
08-12-2019 18.8 (15:20) 6 (08:50) 12.4 5 (17:10) 2.78 (17:10) 0 0 0 0 0
07-12-2019 19.3 (15:50) 6.3 (06:20) 12.8 4.17 (13:50) 2.5 (13:50) 0 0 0 0 0
06-12-2019 19.9 (15:20) 8.3 (06:20) 14.1 5.56 (15:40) 3.61 (20:30) 0 0 0 0 0
05-12-2019 17.5 (16:10) 5 (00:00) 11.3 7.78 (13:50) 4.44 (14:20) 0 0 0 0 0
04-12-2019 15.9 (15:20) 5.2 (23:30) 10.5 9.17 (15:50) 5.83 (15:50) 0 0 0 0 0
03-12-2019 17.6 (15:20) 8.1 (00:00) 12.9 8.89 (12:20) 5 (13:30) 0 0 0 0 0
02-12-2019 15.6 (15:40) 10.8 (00:00) 13.2 5.83 (15:20) 3.06 (15:30) 1.6 0.2 1.4 0 0
01-12-2019 16.1 (15:00) 11.7 (00:00) 13.9 11.67 (15:40) 6.11 (15:40) 1.6 0.8 0.2 0.6 0
30-11-2019 19.5 (15:00) 8.8 (00:00) 14.2 5.56 (15:50) 3.06 (23:50) 0 0 0 0 0
29-11-2019 20.3 (15:30) 8.1 (00:00) 14.2 6.67 (15:20) 3.61 (15:00) 0 0 0 0 0
28-11-2019 19.1 (14:50) 9.6 (23:40) 14.4 4.72 (15:00) 3.06 (04:00) 0 0 0 0 0
27-11-2019 18.9 (14:10) 12.8 (00:00) 15.8 7.22 (00:40) 4.17 (01:00) 2.2 2.2 0 0 0
26-11-2019 19.5 (16:10) 13.8 (00:00) 16.7 8.33 (22:20) 5.28 (22:30) 0.6 0.2 0 0.4 0
25-11-2019 18.7 (13:30) 10.8 (00:40) 14.8 7.22 (12:30) 4.44 (10:00) 1.4 0 0 0.4 1
24-11-2019 16.4 (15:20) 6.3 (00:00) 11.3 5.56 (17:00) 3.06 (14:50) 0 0 0 0 0
23-11-2019 16.6 (16:00) 9.1 (00:00) 12.9 13.89 (05:50) 7.5 (05:30) 0.6 0.6 0 0 0
22-11-2019 17.8 (15:20) 13.9 (00:00) 15.8 15.83 (19:00) 8.33 (19:00) 10.2 3.2 1.6 2.8 2.6
21-11-2019 17.1 (13:10) 11.7 (00:00) 14.4 9.17 (14:40) 6.11 (12:40) 1 0.4 0.2 0 0.4
20-11-2019 14.6 (14:50) 4.5 (03:40) 9.6 14.72 (15:00) 9.44 (15:10) 1 0 0.6 0.2 0.2
19-11-2019 18.3 (15:40) 5 (00:00) 11.6 5 (05:10) 3.33 (05:10) 0 0 0 0 0
18-11-2019 16.7 (16:00) 7 (00:00) 11.9 14.17 (03:10) 8.61 (03:10) 0 0 0 0 0
17-11-2019 16.5 (16:20) 5.6 (00:00) 11 8.61 (13:50) 5.56 (14:30) 0.2 0 0 0.2 0
16-11-2019 14.6 (16:20) 0.6 (00:00) 7.6 6.67 (16:10) 3.61 (16:10) 0 0 0 0 0
15-11-2019 14.1 (15:50) 6.8 (00:00) 10.5 9.44 (16:20) 5.83 (16:20) 0 0 0 0 0
14-11-2019 15.1 (11:40) 9.5 (00:00) 12.3 11.67 (13:50) 7.5 (12:50) 0.4 0 0 0.4 0
13-11-2019 19.9 (17:00) 11.6 (00:00) 15.8 8.33 (12:50) 5 (13:50) 0 0 0 0 0
12-11-2019 19.3 (16:40) 8 (00:00) 13.6 6.94 (19:20) 4.44 (19:20) 0 0 0 0 0
11-11-2019 17.7 (16:10) 12 (06:20) 14.9 10.56 (00:10) 6.67 (00:10) 0 0 0 0 0

Gráficas

Temp. máximas Temp. mínimas Temp. medias Precipitaciones Rachas de viento máximas Velocidades máximas media en intervalos de 10 minutos

Datos horarios

Fecha y hora oficial Temperatura (ºC) Velocidad del viento (km/h) Dirección del viento Racha (km/h) Dirección de racha Precipitación (mm) Presión (hPa) Tendencia (hPa) Humedad (%)
2019-12-10 23:00:00 10 6 Sudoeste 10 Sudoeste 0 -- -- 86
2019-12-10 22:00:00 8.7 2 Sudoeste 4 Sudeste 0 -- -- 88
2019-12-10 21:00:00 9.1 3 Sur 5 Sudoeste 0 -- -- 85
2019-12-10 20:00:00 9.9 0 Calma 4 Este 0 -- -- 83
2019-12-10 19:00:00 11.8 2 Sudeste 4 Este 0 -- -- 77
2019-12-10 18:00:00 15.3 3 Nordeste 9 Norte 0 -- -- 66
2019-12-10 17:00:00 17.5 6 Norte 12 Norte 0 -- -- 57
2019-12-10 16:00:00 18 4 Norte 13 Nordeste 0 -- -- 56
2019-12-10 15:00:00 17.5 6 Norte 15 Norte 0 -- -- 60
2019-12-10 14:00:00 16.3 3 Nordeste 10 Nordeste 0 -- -- 67
2019-12-10 13:00:00 14.9 3 Norte 12 Nordeste 0 -- -- 73
2019-12-10 12:00:00 13.3 5 Nordeste 12 Norte 0 -- -- 79
2019-12-10 11:00:00 11.5 3 Nordeste 14 Este 0 -- -- 88
2019-12-10 10:00:00 9.1 6 Nordeste 15 Nordeste 0 -- -- 96
2019-12-10 09:00:00 7.2 0 Calma 11 Noroeste 0 -- -- 96
2019-12-10 08:00:00 8.5 6 Norte 14 Este 0 -- -- 91
2019-12-10 07:00:00 9.4 6 Este 21 Este 0 -- -- 93
2019-12-10 06:00:00 9.2 8 Nordeste 20 Nordeste 0 -- -- 93
2019-12-10 05:00:00 9.4 8 Nordeste 23 Este 0 -- -- 95
2019-12-10 04:00:00 9.1 5 Nordeste 14 Este 0 -- -- 94
2019-12-10 03:00:00 10.1 7 Nordeste 16 Nordeste 0 -- -- 92
2019-12-10 02:00:00 10.5 9 Nordeste 19 Nordeste 0 -- -- 94
2019-12-10 01:00:00 9.7 3 Este 8 Este 0 -- -- 93
2019-12-10 00:00:00 10 5 Este 8 Este 0 -- -- 92
2019-12-09 23:00:00 10.9 4 Este 9 Este 0 -- -- 89
2019-12-09 22:00:00 11.5 3 Nordeste 12 Nordeste 0 -- -- 87
2019-12-09 21:00:00 12.5 5 Este 11 Nordeste 0 -- -- 85
2019-12-09 20:00:00 13.4 4 Este 16 Este 0 -- -- 82
2019-12-09 19:00:00 15 10 Nordeste 20 Norte 0 -- -- 77
2019-12-09 18:00:00 16.1 9 Norte 21 Nordeste 0 -- -- 74
2019-12-09 17:00:00 17.4 8 Norte 18 Norte 0 -- -- 70
2019-12-09 16:00:00 17 9 Norte 19 Norte 0 -- -- 76
2019-12-09 15:00:00 16.7 9 Norte 18 Norte 0 -- -- 78
2019-12-09 14:00:00 17.5 8 Norte 15 Norte 0 -- -- 75
2019-12-09 13:00:00 17.8 6 Nordeste 12 Nordeste 0 -- -- 76
2019-12-09 12:00:00 16.7 4 Este 8 Este 0 -- -- 83
2019-12-09 11:00:00 13.9 0 Calma 4 Oeste 0 -- -- 95
2019-12-09 10:00:00 12.7 0 Calma 5 Noroeste 0 -- -- 94
2019-12-09 09:00:00 12.5 0 Calma 7 Nordeste 0 -- -- 93
2019-12-09 08:00:00 12 2 Este 5 Sudeste 0 -- -- 93
2019-12-09 07:00:00 11.8 2 Noroeste 4 Sudeste 0 -- -- 93
2019-12-09 06:00:00 11.8 0 Calma 9 Sur 0 -- -- 93
2019-12-09 05:00:00 11.3 3 Sur 6 Sudeste 0 -- -- 95
2019-12-09 04:00:00 10.7 3 Sur 6 Sur 0 -- -- 94
2019-12-09 03:00:00 10.4 3 Sur 5 Sudeste 0 -- -- 93
2019-12-09 02:00:00 10.6 2 Sur 9 Sudeste 0 -- -- 91
2019-12-09 01:00:00 11 3 Sur 5 Sur 0 -- -- 89
2019-12-09 00:00:00 11.7 3 Sur 9 Sur 0 -- -- 86
2019-12-08 23:00:00 11.5 5 Sur 9 Sur 0 -- -- 85
2019-12-08 22:00:00 11.5 6 Sudoeste 8 Sur 0 -- -- 86
2019-12-08 21:00:00 12.2 3 Sur 7 Oeste 0 -- -- 83
2019-12-08 20:00:00 12.4 4 Oeste 6 Sudoeste 0 -- -- 81
2019-12-08 19:00:00 13.2 2 Sudoeste 5 Noroeste 0 -- -- 77
2019-12-08 18:00:00 15.1 0 Calma 18 Noroeste 0 -- -- 68
2019-12-08 17:00:00 17.1 9 Noroeste 17 Noroeste 0 -- -- 63
2019-12-08 16:00:00 18.5 5 Oeste 10 Oeste 0 -- -- 55
2019-12-08 15:00:00 18.5 4 Oeste 17 Oeste 0 -- -- 56
2019-12-08 14:00:00 18.1 3 Noroeste 8 Noroeste 0 -- -- 59
2019-12-08 13:00:00 16.8 2 Norte 10 Norte 0 -- -- 64
2019-12-08 12:00:00 15 0 Calma 8 Norte 0 -- -- 69
2019-12-08 11:00:00 11.4 0 Calma 8 Noroeste 0 -- -- 86
2019-12-08 10:00:00 8.9 0 Calma 4 Noroeste 0 -- -- 95
2019-12-08 09:00:00 6.1 0 Calma 3 Sur 0 -- -- 94
2019-12-08 08:00:00 7.3 2 Sudoeste 4 Este 0 -- -- 91
2019-12-08 07:00:00 8.3 3 Este 5 Este 0 -- -- 90
2019-12-08 06:00:00 8.2 4 Este 8 Este 0 -- -- 90
2019-12-08 05:00:00 8.2 7 Este 9 Este 0 -- -- 90
2019-12-08 04:00:00 8.5 4 Este 8 Este 0 -- -- 91
2019-12-08 03:00:00 8.1 5 Sudeste 8 Sudeste 0 -- -- 91
2019-12-08 02:00:00 6.9 4 Sur 6 Sudeste 0 -- -- 91
2019-12-08 01:00:00 7.6 3 Sur 4 Sur 0 -- -- 89
2019-12-08 00:00:00 8.7 3 Sur 6 Sudeste 0 -- -- 89
2019-12-07 23:00:00 8.9 3 Sur 5 Sudeste 0 -- -- 90
2019-12-07 22:00:00 9.1 0 Calma 5 Oeste 0 -- -- 87
2019-12-07 21:00:00 9.7 0 Calma 5 Sur 0 -- -- 86
2019-12-07 20:00:00 10.5 4 Sur 5 Sur 0 -- -- 84
2019-12-07 19:00:00 13.5 0 Calma 5 Oeste 0 -- -- 74
2019-12-07 18:00:00 16.4 0 Calma 12 Noroeste 0 -- -- 61
2019-12-07 17:00:00 18.9 3 Norte 8 Norte 0 -- -- 53
2019-12-07 16:00:00 19.3 4 Norte 12 Norte 0 -- -- 52
2019-12-07 15:00:00 18.9 5 Norte 15 Norte 0 -- -- 54
2019-12-07 14:00:00 18.2 8 Norte 15 Norte 0 -- -- 59
2019-12-07 13:00:00 17.3 6 Norte 12 Noroeste 0 -- -- 63
2019-12-07 12:00:00 16 3 Nordeste 8 Nordeste 0 -- -- 65
2019-12-07 11:00:00 11.3 4 Noroeste 14 Norte 0 -- -- 84
2019-12-07 10:00:00 9.1 5 Este 10 Este 0 -- -- 94
2019-12-07 09:00:00 6.8 6 Este 9 Este 0 -- -- 96
2019-12-07 08:00:00 6.4 5 Este 9 Este 0 -- -- 95
2019-12-07 07:00:00 7 5 Este 10 Sudeste 0 -- -- 96
2019-12-07 06:00:00 6.4 6 Este 9 Este 0 -- -- 94
2019-12-07 05:00:00 7 0 Calma 2 Noroeste 0 -- -- 94
2019-12-07 04:00:00 7.1 0 Calma 4 Sur 0 -- -- 94
2019-12-07 03:00:00 7.5 3 Sudoeste 4 Sudoeste 0 -- -- 92
2019-12-07 02:00:00 7.4 0 Calma 3 Este 0 -- -- 92
2019-12-07 01:00:00 7.8 2 Sudeste 4 Sudeste 0 -- -- 90
2019-12-07 00:00:00 8.9 3 Este 6 Este 0 -- -- 87
2019-12-06 23:00:00 11.3 0 Calma 12 Sur 0 -- -- 79
2019-12-06 22:00:00 14.2 10 Sudeste 15 Sudeste 0 -- -- 70
2019-12-06 21:00:00 13.6 9 Sudeste 19 Sudeste 0 -- -- 72
2019-12-06 20:00:00 13.5 6 Sudeste 14 Este 0 -- -- 70
2019-12-06 19:00:00 14.8 7 Este 16 Este 0 -- -- 66
2019-12-06 18:00:00 16.6 9 Nordeste 17 Norte 0 -- -- 60
2019-12-06 17:00:00 19 12 Nordeste 18 Nordeste 0 -- -- 53
2019-12-06 16:00:00 19.7 9 Norte 20 Norte 0 -- -- 51
2019-12-06 15:00:00 19.8 9 Norte 19 Norte 0 -- -- 53
2019-12-06 14:00:00 19.3 6 Norte 15 Norte 0 -- -- 58
2019-12-06 13:00:00 18 8 Nordeste 17 Nordeste 0 -- -- 63
2019-12-06 12:00:00 15.1 5 Nordeste 14 Este 0 -- -- 71
2019-12-06 11:00:00 13 6 Este 14 Este 0 -- -- 78
2019-12-06 10:00:00 9.8 3 Este 10 Este 0 -- -- 88
2019-12-06 09:00:00 8.3 4 Este 12 Este 0 -- -- 89
2019-12-06 08:00:00 8.5 4 Nordeste 17 Este 0 -- -- 88
2019-12-06 07:00:00 8.6 7 Este 18 Este 0 -- -- 91
2019-12-06 06:00:00 8.8 4 Nordeste 13 Este 0 -- -- 91
2019-12-06 05:00:00 9 5 Este 12 Este 0 -- -- 90
2019-12-06 04:00:00 9.1 6 Nordeste 14 Nordeste 0 -- -- 90
2019-12-06 03:00:00 9.9 7 Este 17 Nordeste 0 -- -- 91
2019-12-06 02:00:00 10.1 7 Este 15 Nordeste 0 -- -- 90
2019-12-06 01:00:00 10.2 4 Este 12 Nordeste 0 -- -- 87
2019-12-06 00:00:00 10.4 6 Este 9 Nordeste 0 -- -- 83
2019-12-05 23:00:00 11.5 3 Sudeste 12 Este 0 -- -- 77
2019-12-05 22:00:00 11.9 8 Este 14 Este 0 -- -- 75
2019-12-05 21:00:00 12.1 5 Sudeste 14 Este 0 -- -- 74
2019-12-05 20:00:00 12.7 7 Este 15 Nordeste 0 -- -- 75
2019-12-05 19:00:00 13.7 8 Norte 14 Norte 0 -- -- 73
2019-12-05 18:00:00 14.7 6 Norte 20 Nordeste 0 -- -- 68
2019-12-05 17:00:00 16.6 10 Nordeste 18 Nordeste 0 -- -- 61
2019-12-05 16:00:00 17.3 9 Nordeste 22 Nordeste 0 -- -- 59
2019-12-05 15:00:00 16.9 12 Nordeste 27 Nordeste 0 -- -- 60
2019-12-05 14:00:00 16.3 15 Nordeste 28 Nordeste 0 -- -- 61
2019-12-05 13:00:00 15.1 15 Nordeste 27 Nordeste 0 -- -- 63
2019-12-05 12:00:00 13.5 11 Nordeste 22 Nordeste 0 -- -- 67
2019-12-05 11:00:00 11.2 8 Nordeste 17 Nordeste 0 -- -- 74
2019-12-05 10:00:00 8.3 6 Este 16 Este 0 -- -- 78
2019-12-05 09:00:00 5.5 3 Este 14 Norte 0 -- -- 82
2019-12-05 08:00:00 5.7 6 Este 11 Este 0 -- -- 79
2019-12-05 07:00:00 5.2 4 Este 20 Norte 0 -- -- 87
2019-12-05 06:00:00 6 6 Este 9 Sudeste 0 -- -- 82
2019-12-05 05:00:00 6.4 6 Este 14 Este 0 -- -- 84
2019-12-05 04:00:00 5.7 8 Este 12 Este 0 -- -- 85
2019-12-05 03:00:00 6.1 5 Este 13 Sudeste 0 -- -- 85
2019-12-05 02:00:00 6.2 5 Este 10 Sudeste 0 -- -- 87
2019-12-05 01:00:00 6.3 4 Sudeste 13 Sudeste 0 -- -- 87
2019-12-05 00:00:00 5.6 6 Sudeste 10 Sudeste 0 -- -- 91
2019-12-04 23:00:00 5.7 2 Sur 5 Este 0 -- -- 87
2019-12-04 22:00:00 7.1 3 Sur 6 Sur 0 -- -- 83
2019-12-04 21:00:00 7.1 4 Sur 5 Sur 0 -- -- 83
2019-12-04 20:00:00 7.6 4 Sur 6 Sur 0 -- -- 82
2019-12-04 19:00:00 8.9 3 Sur 8 Sur 0 -- -- 76
2019-12-04 18:00:00 11.1 2 Sudoeste 13 Oeste 0 -- -- 67
2019-12-04 17:00:00 12.7 4 Oeste 27 Oeste 0 -- -- 55
2019-12-04 16:00:00 13.6 21 Oeste 33 Oeste 0 -- -- 61
2019-12-04 15:00:00 15.7 7 Oeste 18 Oeste 0 -- -- 62
2019-12-04 14:00:00 15.4 7 Sudoeste 16 Sur 0 -- -- 68
2019-12-04 13:00:00 13.5 6 Oeste 12 Sudoeste 0 -- -- 75
2019-12-04 12:00:00 13 4 Sudeste 12 Sur 0 -- -- 86
2019-12-04 11:00:00 10.1 5 Sur 10 Sur 0 -- -- 98
2019-12-04 10:00:00 9.1 4 Oeste 9 Oeste 0 -- -- 97
2019-12-04 09:00:00 9.4 4 Sur 9 Sudoeste 0 -- -- 97
2019-12-04 08:00:00 9.5 2 Sudoeste 6 Sudoeste 0 -- -- 96
2019-12-04 07:00:00 9.7 6 Sudoeste 14 Sur 0 -- -- 95
2019-12-04 06:00:00 9.5 3 Sur 13 Sur 0 -- -- 93
2019-12-04 05:00:00 10.2 7 Sur 13 Sur 0 -- -- 96
2019-12-04 04:00:00 8.6 5 Sudeste 9 Sudeste 0 -- -- 97
2019-12-04 03:00:00 8.9 5 Sudeste 6 Sudeste 0 -- -- 97
2019-12-04 02:00:00 8.5 3 Sur 5 Sudoeste 0 -- -- 96
2019-12-04 01:00:00 8.9 2 Sudoeste 6 Sur 0 -- -- 96
2019-12-04 00:00:00 8.5 0 Calma 5 Sur 0 -- -- 95
2019-12-03 23:00:00 8.6 4 Sudoeste 5 Sudoeste 0 -- -- 93
2019-12-03 22:00:00 9.4 0 Calma 6 Sudoeste 0 -- -- 90
2019-12-03 21:00:00 10.6 0 Calma 4 Este 0 -- -- 88
2019-12-03 20:00:00 12.4 3 Este 9 Nordeste 0 -- -- 81
2019-12-03 19:00:00 13.3 4 Norte 8 Norte 0 -- -- 78
2019-12-03 18:00:00 15.1 5 Nordeste 20 Nordeste 0 -- -- 71
2019-12-03 17:00:00 17.1 10 Nordeste 23 Nordeste 0 -- -- 65
2019-12-03 16:00:00 17.5 12 Nordeste 26 Nordeste 0 -- -- 63
2019-12-03 15:00:00 17.4 13 Nordeste 28 Nordeste 0 -- -- 64
2019-12-03 14:00:00 16.4 15 Nordeste 30 Nordeste 0 -- -- 70
2019-12-03 13:00:00 15.3 17 Nordeste 32 Nordeste 0 -- -- 72
2019-12-03 12:00:00 14 15 Nordeste 29 Nordeste 0 -- -- 77
2019-12-03 11:00:00 11.6 12 Nordeste 22 Norte 0 -- -- 84
2019-12-03 10:00:00 10.5 10 Nordeste 24 Nordeste 0 -- -- 90
2019-12-03 09:00:00 8.9 8 Nordeste 17 Norte 0 -- -- 94
2019-12-03 08:00:00 8.5 4 Nordeste 10 Este 0 -- -- 94
2019-12-03 07:00:00 8.9 4 Este 15 Este 0 -- -- 93
2019-12-03 06:00:00 9.2 6 Este 17 Nordeste 0 -- -- 93
2019-12-03 05:00:00 9.9 5 Este 16 Nordeste 0 -- -- 92
2019-12-03 04:00:00 10.8 5 Este 13 Nordeste 0 -- -- 91
2019-12-03 03:00:00 11.1 3 Este 17 Nordeste 0 -- -- 89
2019-12-03 02:00:00 10.9 9 Nordeste 21 Este 0 -- -- 91
2019-12-03 01:00:00 11 5 Nordeste 13 Nordeste 0 -- -- 88
2019-12-03 00:00:00 11.7 5 Este 13 Nordeste 0 -- -- 86
2019-12-02 23:00:00 12.1 5 Este 11 Este 0 -- -- 84
2019-12-02 22:00:00 12.5 5 Este 14 Este 0 -- -- 81
2019-12-02 21:00:00 12.3 6 Este 18 Este 0 -- -- 83
2019-12-02 20:00:00 12.1 6 Este 14 Nordeste 0 -- -- 86
2019-12-02 19:00:00 11.9 6 Nordeste 12 Nordeste 0 -- -- 83
2019-12-02 18:00:00 13.7 3 Este 21 Este 0 -- -- 79
2019-12-02 17:00:00 14.5 8 Nordeste 21 Este 0 -- -- 82
2019-12-02 16:00:00 15.3 8 Nordeste 21 Nordeste 0 -- -- 79
2019-12-02 15:00:00 14.6 5 Nordeste 14 Este 0 -- -- 77
2019-12-02 14:00:00 14.4 4 Este 13 Este 0 -- -- 79
2019-12-02 13:00:00 14 5 Este 15 Este 0 -- -- 84
2019-12-02 12:00:00 13.4 6 Este 15 Nordeste 0 -- -- 86
2019-12-02 11:00:00 12.6 7 Nordeste 14 Nordeste 0 -- -- 93
2019-12-02 10:00:00 11.4 6 Nordeste 12 Norte 0 -- -- 97
2019-12-02 09:00:00 11 0 Calma 9 Este 0.8 -- -- 97
2019-12-02 08:00:00 11 4 Nordeste 12 Noroeste 0.4 -- -- 96
2019-12-02 07:00:00 11.1 3 Noroeste 9 Sudeste 0.2 -- -- 95
2019-12-02 06:00:00 11.1 4 Sudeste 6 Sudeste 0 -- -- 95
2019-12-02 05:00:00 11 2 Sudeste 5 Sudeste 0 -- -- 95
2019-12-02 04:00:00 10.9 0 Calma 3 Sudeste 0 -- -- 94
2019-12-02 03:00:00 11.3 2 Sudeste 4 Sudoeste 0.2 -- -- 92
2019-12-02 02:00:00 11.7 2 Sudoeste 6 Sur 0 -- -- 91
2019-12-02 01:00:00 12.2 3 Sudoeste 8 Sur 0 -- -- 90
2019-12-02 00:00:00 12.4 4 Sur 8 Sudoeste 0 -- -- 90
2019-12-01 23:00:00 12.4 3 Sur 8 Oeste 0 -- -- 90
2019-12-01 22:00:00 12.7 3 Sudoeste 17 Sudoeste 0 -- -- 90
2019-12-01 21:00:00 12.7 5 Sudoeste 15 Sudoeste 0 -- -- 92
2019-12-01 20:00:00 12.2 7 Sur 11 Sudoeste 0 -- -- 94
2019-12-01 19:00:00 12.4 4 Sudoeste 12 Sudoeste 0 -- -- 91
2019-12-01 18:00:00 13.6 4 Sudoeste 15 Oeste 0 -- -- 89
2019-12-01 17:00:00 14.5 5 Sudoeste 16 Oeste 0 -- -- 92
2019-12-01 16:00:00 13.3 10 Oeste 42 Oeste 0.6 -- -- 94
2019-12-01 15:00:00 16.1 8 Sudoeste 27 Oeste 0 -- -- 76
2019-12-01 14:00:00 15.1 15 Oeste 28 Oeste 0 -- -- 80
2019-12-01 13:00:00 15.6 5 Oeste 17 Oeste 0 -- -- 75
2019-12-01 12:00:00 15.4 5 Sudoeste 15 Oeste 0 -- -- 76
2019-12-01 11:00:00 14.6 7 Sudoeste 13 Sur 0.2 -- -- 95
2019-12-01 10:00:00 12.8 5 Sur 8 Sudoeste 0 -- -- 99
2019-12-01 09:00:00 12 4 Sudoeste 5 Sudoeste 0 -- -- 98
2019-12-01 08:00:00 12.2 2 Sudoeste 6 Sur 0 -- -- 98
2019-12-01 07:00:00 11.9 3 Sur 4 Sudeste 0 -- -- 98
2019-12-01 06:00:00 12.6 2 Sudoeste 5 Sudoeste 0 -- -- 97
2019-12-01 05:00:00 13.2 2 Sudoeste 13 Noroeste 0 -- -- 97
2019-12-01 04:00:00 13.8 5 Oeste 12 Oeste 0 -- -- 97
2019-12-01 03:00:00 14.1 5 Oeste 12 Oeste 0 -- -- 97
2019-12-01 02:00:00 14.2 2 Oeste 18 Oeste 0.2 -- -- 96
2019-12-01 01:00:00 14.7 3 Oeste 12 Oeste 0.6 -- -- 92
2019-12-01 00:00:00 14.8 9 Sur 17 Sur 0 -- -- 88
2019-11-30 23:00:00 15 7 Sur 17 Sur 0 -- -- 85
2019-11-30 22:00:00 15.1 8 Sudoeste 16 Sur 0 -- -- 83
2019-11-30 21:00:00 15.1 5 Sudoeste 11 Sur 0 -- -- 85
2019-11-30 20:00:00 15.2 3 Sudoeste 12 Oeste 0 -- -- 83
2019-11-30 19:00:00 15.9 6 Oeste 18 Oeste 0 -- -- 75
2019-11-30 18:00:00 17.3 4 Oeste 13 Oeste 0 -- -- 69
2019-11-30 17:00:00 19 4 Oeste 17 Noroeste 0 -- -- 64
2019-11-30 16:00:00 19 9 Noroeste 20 Noroeste 0 -- -- 63
2019-11-30 15:00:00 19.5 6 Oeste 17 Noroeste 0 -- -- 62
2019-11-30 14:00:00 18.9 4 Noroeste 13 Noroeste 0 -- -- 66
2019-11-30 13:00:00 17.1 4 Norte 9 Noroeste 0 -- -- 72
2019-11-30 12:00:00 14.6 6 Norte 13 Norte 0 -- -- 83
2019-11-30 11:00:00 13 3 Noroeste 4 Noroeste 0 -- -- 92
2019-11-30 10:00:00 10.5 2 Noroeste 10 Nordeste 0 -- -- 97
2019-11-30 09:00:00 9.1 2 Norte 13 Nordeste 0 -- -- 97
2019-11-30 08:00:00 9.1 3 Nordeste 6 Norte 0 -- -- 96
2019-11-30 07:00:00 9.3 2 Sudeste 5 Noroeste 0 -- -- 95
2019-11-30 06:00:00 10.2 3 Norte 9 Nordeste 0 -- -- 93
2019-11-30 05:00:00 10.7 3 Este 12 Este 0 -- -- 94
2019-11-30 04:00:00 10.7 6 Este 11 Este 0 -- -- 95
2019-11-30 03:00:00 10.3 4 Este 8 Este 0 -- -- 93
2019-11-30 02:00:00 10.7 3 Este 5 Nordeste 0 -- -- 91
2019-11-30 01:00:00 11.9 3 Nordeste 9 Este 0 -- -- 87
2019-11-30 00:00:00 12.4 4 Este 10 Este 0 -- -- 87
2019-11-29 23:00:00 13.2 5 Este 10 Nordeste 0 -- -- 85
2019-11-29 22:00:00 13.3 6 Este 11 Este 0 -- -- 85
2019-11-29 21:00:00 13.8 5 Este 9 Nordeste 0 -- -- 83
2019-11-29 20:00:00 14.5 5 Este 9 Nordeste 0 -- -- 80
2019-11-29 19:00:00 15.6 5 Nordeste 14 Nordeste 0 -- -- 75
2019-11-29 18:00:00 17.5 7 Norte 21 Norte 0 -- -- 69
2019-11-29 17:00:00 19.6 12 Norte 23 Norte 0 -- -- 63
2019-11-29 16:00:00 20.2 12 Norte 24 Norte 0 -- -- 61
2019-11-29 15:00:00 20.1 13 Norte 23 Nordeste 0 -- -- 61
2019-11-29 14:00:00 19.8 13 Norte 23 Norte 0 -- -- 63
2019-11-29 13:00:00 18.9 12 Norte 21 Nordeste 0 -- -- 68
2019-11-29 12:00:00 17.6 9 Nordeste 17 Nordeste 0 -- -- 74
2019-11-29 11:00:00 15.5 8 Nordeste 14 Nordeste 0 -- -- 82
2019-11-29 10:00:00 12.4 6 Nordeste 12 Este 0 -- -- 98
2019-11-29 09:00:00 10.4 4 Este 9 Este 0 -- -- 99
2019-11-29 08:00:00 10 5 Este 11 Este 0 -- -- 99
2019-11-29 07:00:00 10 6 Este 9 Este 0 -- -- 99
2019-11-29 06:00:00 9.8 3 Este 6 Este 0 -- -- 99
2019-11-29 05:00:00 9 5 Este 5 Este 0 -- -- 99
2019-11-29 04:00:00 8.5 2 Este 4 Este 0 -- -- 98
2019-11-29 03:00:00 8.4 0 Calma 3 Norte 0 -- -- 98
2019-11-29 02:00:00 9 2 Este 5 Este 0 -- -- 97
2019-11-29 01:00:00 9.2 3 Este 4 Este 0 -- -- 97
2019-11-29 00:00:00 9.6 0 Calma 2 Sudeste 0 -- -- 96
2019-11-28 23:00:00 10.2 0 Calma 4 Este 0 -- -- 95
2019-11-28 22:00:00 11.1 2 Sudoeste 8 Sudoeste 0 -- -- 94
2019-11-28 21:00:00 11.9 5 Sudoeste 10 Sudoeste 0 -- -- 95
2019-11-28 20:00:00 12.3 2 Este -- -- 0 -- -- 92
2019-11-28 19:00:00 13.7 0 Calma 4 Norte 0 -- -- 86
2019-11-28 18:00:00 16.3 0 Calma 8 Noroeste 0 -- -- 73
2019-11-28 17:00:00 18.3 5 Noroeste 13 Noroeste 0 -- -- 66
2019-11-28 16:00:00 18.6 8 Noroeste 15 Noroeste 0 -- -- 67
2019-11-28 15:00:00 19.1 8 Noroeste 17 Noroeste 0 -- -- 64
2019-11-28 14:00:00 18.6 6 Noroeste 13 Oeste 0 -- -- 67
2019-11-28 13:00:00 17.2 0 Calma 4 Nordeste 0 -- -- 74
2019-11-28 12:00:00 17.1 3 Norte 9 Norte 0 -- -- 83
2019-11-28 11:00:00 15.6 0 Calma 4 Sudeste 0 -- -- 96
2019-11-28 10:00:00 13.3 2 Sudeste 4 Este 0 -- -- 99
2019-11-28 09:00:00 11.3 0 Calma 4 Noroeste 0 -- -- 99
2019-11-28 08:00:00 12.3 6 Sudeste 10 Sudeste 0 -- -- 98
2019-11-28 07:00:00 12.6 3 Sur 7 Sudeste 0 -- -- 98
2019-11-28 06:00:00 12.4 3 Sudeste 4 Sudeste 0 -- -- 98
2019-11-28 05:00:00 12 2 Sudeste 10 Sur 0 -- -- 97
2019-11-28 04:00:00 12.3 11 Sudeste 13 Sudeste 0 -- -- 97
2019-11-28 03:00:00 11.6 4 Este 9 Sudeste 0 -- -- 96
2019-11-28 02:00:00 12.2 6 Sudeste 8 Sudeste 0 -- -- 96
2019-11-28 01:00:00 12.9 3 Sur 6 Sur 0 -- -- 96
2019-11-28 00:00:00 12.8 3 Sur 8 Sudoeste 0 -- -- 95
2019-11-27 23:00:00 13.2 4 Sur 7 Sudoeste 0 -- -- 93
2019-11-27 22:00:00 14.3 4 Sur 8 Oeste 0 -- -- 91
2019-11-27 21:00:00 14.7 5 Sudoeste 8 Sudoeste 0 -- -- 90
2019-11-27 20:00:00 14.9 0 Calma 6 Sur 0 -- -- 89
2019-11-27 19:00:00 15.5 0 Calma 12 Oeste 0 -- -- 84
2019-11-27 18:00:00 17 2 Sudoeste 8 Noroeste 0 -- -- 84
2019-11-27 17:00:00 17.5 6 Noroeste 14 Noroeste 0 -- -- 78
2019-11-27 16:00:00 18.2 9 Noroeste 17 Noroeste 0 -- -- 73
2019-11-27 15:00:00 18.3 6 Noroeste 13 Noroeste 0 -- -- 71
2019-11-27 14:00:00 18.6 5 Oeste 14 Noroeste 0 -- -- 75
2019-11-27 06:00:00 -- -- -- -- -- -- -- -- --
2019-11-27 05:00:00 14.5 3 Sudoeste 11 Oeste 0 -- -- 96
2019-11-27 04:00:00 14.7 4 Sudoeste 12 Sudoeste 0 -- -- 96
2019-11-27 03:00:00 15 5 Sudoeste 15 Sudoeste 0 -- -- 97
2019-11-27 02:00:00 15.1 10 Sudoeste 23 Sudoeste 0.8 -- -- 97
2019-11-27 01:00:00 15.5 15 Sur 26 Sur 1.4 -- -- 97
2019-11-27 00:00:00 15.9 12 Sur 24 Sur 0 -- -- 96
2019-11-26 23:00:00 16 16 Sur 30 Sur 0 -- -- 96
2019-11-26 22:00:00 16 15 Sur 25 Sur 0 -- -- 96
2019-11-26 21:00:00 16 10 Sur 20 Sur 0 -- -- 94
2019-11-26 20:00:00 16.1 8 Sur 15 Sudoeste 0 -- -- 93
2019-11-26 19:00:00 17 8 Sudoeste 18 Sudoeste 0 -- -- 91
2019-11-26 18:00:00 17.6 8 Sudoeste 21 Sudoeste 0 -- -- 88
2019-11-26 17:00:00 18.5 6 Sudoeste 16 Sudoeste 0 -- -- 84
2019-11-26 16:00:00 19.3 4 Sudoeste 14 Sudoeste 0 -- -- 85
2019-11-26 15:00:00 17.9 3 Sudoeste 11 Sudoeste 0 -- -- 95
2019-11-26 14:00:00 17.6 3 Sudoeste 12 Sudoeste 0.2 -- -- 96
2019-11-26 13:00:00 17.3 5 Sur 14 Sur 0.2 -- -- 95
2019-11-26 12:00:00 17.4 8 Sur 12 Sur 0 -- -- 94
2019-11-26 11:00:00 16.3 6 Sur 10 Sudeste 0 -- -- 99
2019-11-26 10:00:00 15.2 6 Sur 8 Sur 0 -- -- 99
2019-11-26 09:00:00 14.5 5 Sur 13 Sur 0 -- -- 99
2019-11-26 08:00:00 14.2 5 Sudeste 11 Sudeste 0 -- -- 99
2019-11-26 07:00:00 14.2 9 Sudeste 13 Sudeste 0 -- -- 99
2019-11-26 06:00:00 13.8 7 Sur 13 Sur 0 -- -- 99
2019-11-26 05:00:00 13.8 9 Sudeste 13 Sudeste 0.2 -- -- 99
2019-11-26 04:00:00 14.2 4 Sur 6 Sur 0 -- -- 99
2019-11-26 03:00:00 14.6 0 Calma 7 Oeste 0 -- -- 99
2019-11-26 02:00:00 15 4 Oeste 11 Oeste 0 -- -- 98
2019-11-26 01:00:00 15.8 3 Oeste 13 Sudoeste 0 -- -- 98
2019-11-26 00:00:00 16.1 4 Sudoeste 12 Sudoeste 0 -- -- 98
2019-11-25 23:00:00 16.4 7 Sudoeste 15 Sudoeste 0 -- -- 98
2019-11-25 22:00:00 16.5 5 Sudoeste 12 Sudoeste 0 -- -- 98
2019-11-25 21:00:00 16.5 6 Sudoeste 12 Sudoeste 0 -- -- 97
2019-11-25 20:00:00 16.5 5 Sudoeste 16 Sudoeste 0.2 -- -- 97
2019-11-25 19:00:00 16.3 8 Sudoeste 16 Sudoeste 0.8 -- -- 96
2019-11-25 18:00:00 16.5 7 Sudoeste 15 Sudoeste 0.2 -- -- 95
2019-11-25 17:00:00 17 6 Sudoeste 18 Sudoeste 0.2 -- -- 93
2019-11-25 16:00:00 17.5 5 Sudoeste 22 Sudoeste 0 -- -- 90
2019-11-25 15:00:00 18.2 6 Sudoeste 22 Sudoeste 0 -- -- 87
2019-11-25 14:00:00 18.2 6 Oeste 22 Sudoeste 0 -- -- 83
2019-11-25 13:00:00 18.1 9 Sudoeste 26 Sudoeste 0 -- -- 83
2019-11-25 12:00:00 17.3 12 Sur 23 Sur 0 -- -- 85
2019-11-25 11:00:00 15.3 15 Sur 25 Sudoeste 0 -- -- 90
2019-11-25 10:00:00 14.4 16 Sur 25 Sur 0 -- -- 92
2019-11-25 09:00:00 13.7 14 Sur 21 Sur 0 -- -- 93
2019-11-25 08:00:00 13.4 12 Sur 19 Sur 0 -- -- 92
2019-11-25 07:00:00 13.5 10 Sur 17 Sudeste 0 -- -- 88
2019-11-25 06:00:00 13.4 9 Sur 17 Sur 0 -- -- 88
2019-11-25 05:00:00 12.9 5 Sudeste 10 Sur 0 -- -- 89
2019-11-25 04:00:00 12.9 7 Sur 12 Sur 0 -- -- 88
2019-11-25 03:00:00 12.5 7 Sur 15 Sur 0 -- -- 89
2019-11-25 02:00:00 12.2 6 Sur 12 Sudeste 0 -- -- 90
2019-11-25 01:00:00 10.8 4 Sur 9 Sudeste 0 -- -- 91
2019-11-25 00:00:00 11.2 5 Sur 9 Sur 0 -- -- 89
2019-11-24 23:00:00 11.7 5 Sur 10 Sur 0 -- -- 86
2019-11-24 22:00:00 12.5 5 Sur 9 Sur 0 -- -- 83
2019-11-24 21:00:00 12.6 5 Sur 9 Sudoeste 0 -- -- 81
2019-11-24 20:00:00 12.6 4 Sur 10 Sudoeste 0 -- -- 81
2019-11-24 19:00:00 13 4 Sur 10 Oeste 0 -- -- 79
2019-11-24 18:00:00 14.1 4 Oeste 17 Oeste 0 -- -- 72
2019-11-24 17:00:00 15.9 9 Oeste 20 Noroeste 0 -- -- 63
2019-11-24 16:00:00 15.6 5 Oeste 18 Noroeste 0 -- -- 67
2019-11-24 15:00:00 16 9 Noroeste 18 Oeste 0 -- -- 62
2019-11-24 14:00:00 14.9 6 Oeste 13 Oeste 0 -- -- 67
2019-11-24 13:00:00 13.6 5 Oeste 12 Noroeste 0 -- -- 73
2019-11-24 12:00:00 12.9 3 Noroeste 9 Noroeste 0 -- -- 74
2019-11-24 11:00:00 12.1 4 Sur 8 Sur 0 -- -- 81
2019-11-24 10:00:00 8.8 3 Sur 7 Sur 0 -- -- 96
2019-11-24 09:00:00 6.9 4 Sur 6 Sudoeste 0 -- -- 95
2019-11-24 08:00:00 6.8 4 Sudoeste 6 Sudoeste 0 -- -- 95
2019-11-24 07:00:00 6.7 3 Sudoeste 9 Sudoeste 0 -- -- 93
2019-11-24 06:00:00 7.6 7 Sudoeste 10 Sudoeste 0 -- -- 93
2019-11-24 05:00:00 7.4 4 Sudoeste 8 Sudoeste 0 -- -- 92
2019-11-24 04:00:00 8.1 4 Sudoeste 8 Sudoeste 0 -- -- 90
2019-11-24 03:00:00 8.4 5 Sudoeste 8 Sudoeste 0 -- -- 89
2019-11-24 02:00:00 9.1 4 Sudoeste 12 Oeste 0 -- -- 85
2019-11-24 01:00:00 9.7 6 Sudoeste 12 Sudoeste 0 -- -- 83
2019-11-24 00:00:00 10.2 6 Oeste 13 Oeste 0 -- -- 82
2019-11-23 23:00:00 10.4 4 Noroeste 13 Noroeste 0 -- -- 81
2019-11-23 22:00:00 11.5 7 Oeste 16 Noroeste 0 -- -- 83
2019-11-23 21:00:00 11.5 5 Oeste 16 Oeste 0 -- -- 92
2019-11-23 20:00:00 11.9 3 Sudoeste 14 Oeste 0 -- -- 88
2019-11-23 19:00:00 13 5 Oeste 15 Oeste 0 -- -- 83
2019-11-23 18:00:00 14.4 12 Oeste 24 Noroeste 0 -- -- 72
2019-11-23 17:00:00 15.7 16 Noroeste 28 Noroeste 0 -- -- 64
2019-11-23 16:00:00 16.6 19 Noroeste 33 Noroeste 0 -- -- 59
2019-11-23 15:00:00 16.5 20 Noroeste 33 Noroeste 0 -- -- 60
2019-11-23 14:00:00 15.9 21 Noroeste 32 Noroeste 0 -- -- 67
2019-11-23 13:00:00 15.2 19 Noroeste 32 Noroeste 0 -- -- 69
2019-11-23 12:00:00 14.5 21 Noroeste 31 Noroeste 0 -- -- 76
2019-11-23 11:00:00 13.6 20 Noroeste 30 Oeste 0 -- -- 82
2019-11-23 10:00:00 12.8 13 Oeste 26 Oeste 0 -- -- 89
2019-11-23 09:00:00 12 8 Oeste 20 Oeste 0 -- -- 93
2019-11-23 08:00:00 12 7 Oeste 20 Oeste 0 -- -- 92
2019-11-23 07:00:00 12 11 Oeste 32 Oeste 0 -- -- 92
2019-11-23 06:00:00 11.9 21 Oeste 50 Oeste 0.6 -- -- 93
2019-11-23 05:00:00 13.3 5 Oeste 16 Oeste 0 -- -- 87
2019-11-23 04:00:00 13.6 9 Oeste 26 Oeste 0 -- -- 85
2019-11-23 03:00:00 13.4 4 Sudoeste 18 Sudoeste 0 -- -- 91
2019-11-23 02:00:00 13.5 6 Sudoeste 14 Oeste 0 -- -- 92
2019-11-23 01:00:00 14 4 Oeste 18 Sudoeste 0 -- -- 91
2019-11-23 00:00:00 14.4 6 Sudoeste 18 Sudoeste 0 -- -- 89
2019-11-22 23:00:00 14.3 4 Sudoeste 21 Sudoeste 0 -- -- 89
2019-11-22 22:00:00 14.1 6 Sudoeste 21 Oeste 0 -- -- 92
2019-11-22 21:00:00 14.7 4 Oeste 31 Oeste 0 -- -- 92
2019-11-22 20:00:00 15.4 17 Oeste 47 Oeste 0.2 -- -- 92
2019-11-22 19:00:00 15.4 30 Noroeste 57 Noroeste 2.4 -- -- 94
2019-11-22 18:00:00 17.3 13 Sudoeste 43 Sudoeste 0.2 -- -- 94
2019-11-22 17:00:00 17.1 15 Sudoeste 42 Sudoeste 0.2 -- -- 95
2019-11-22 16:00:00 17.3 13 Sudoeste 44 Sur 1.6 -- -- 94
2019-11-22 15:00:00 17.7 21 Sudoeste 44 Sudoeste 0.2 -- -- 92
2019-11-22 14:00:00 17.4 21 Sudoeste 47 Sudoeste 0 -- -- 94
2019-11-22 13:00:00 17 18 Sudoeste 39 Sudoeste 0.6 -- -- 95
2019-11-22 12:00:00 16.9 19 Sudoeste 37 Sur 0.4 -- -- 97
2019-11-22 11:00:00 16.5 17 Sur 34 Sur 0.8 -- -- 97
2019-11-22 10:00:00 16 14 Sur 27 Sudoeste 0 -- -- 98
2019-11-22 09:00:00 15.5 9 Sur 22 Sur 0 -- -- 98
2019-11-22 08:00:00 15.5 6 Sudoeste 13 Sudoeste 0 -- -- 98
2019-11-22 07:00:00 15.4 7 Oeste 17 Oeste 0.4 -- -- 98
2019-11-22 06:00:00 15.2 6 Sur 13 Sudoeste 0.2 -- -- 98
2019-11-22 05:00:00 15.1 5 Sur 13 Sudoeste 0 -- -- 98
2019-11-22 04:00:00 15.1 2 Oeste 17 Sur 1.8 -- -- 98
2019-11-22 03:00:00 14.9 8 Sur 22 Sudoeste 0 -- -- 98
2019-11-22 02:00:00 14.7 10 Sur 18 Sur 1 -- -- 97
2019-11-22 01:00:00 14.6 13 Sur 23 Sur 0.2 -- -- 97
2019-11-22 00:00:00 14.4 15 Sur 24 Sur 0.4 -- -- 96
2019-11-21 23:00:00 14.3 13 Sur 25 Sur 0 -- -- 95
2019-11-21 22:00:00 14.4 14 Sur 28 Sur 0 -- -- 95
2019-11-21 21:00:00 14.5 17 Sur 26 Sudoeste 0 -- -- 95
2019-11-21 20:00:00 14.6 16 Sur 24 Sur 0 -- -- 94
2019-11-21 19:00:00 14.8 15 Sur 26 Sur 0 -- -- 92
2019-11-21 18:00:00 15.1 14 Sur 22 Sur 0 -- -- 88
2019-11-21 17:00:00 16.1 12 Sur 20 Sudoeste 0 -- -- 86
2019-11-21 16:00:00 16.2 8 Sudoeste 33 Sudoeste 0 -- -- 87
2019-11-21 15:00:00 16.6 14 Sudoeste 33 Sur 0 -- -- 83
2019-11-21 14:00:00 16.7 12 Sur 31 Sudoeste 0 -- -- 85
2019-11-21 13:00:00 16.7 18 Sur 33 Sur 0 -- -- 87
2019-11-21 12:00:00 15.9 18 Sur 29 Sur 0.2 -- -- 91
2019-11-21 11:00:00 15.3 18 Sur 25 Sur 0 -- -- 94
2019-11-21 10:00:00 14.2 9 Sur 16 Sudeste 0 -- -- 97
2019-11-21 09:00:00 13.5 8 Sur 15 Sur 0 -- -- 97
2019-11-21 08:00:00 -- -- -- -- -- -- -- -- --
2019-11-21 07:00:00 -- -- -- -- -- -- -- -- --
2019-11-21 06:00:00 -- -- -- -- -- -- -- -- --
2019-11-21 05:00:00 -- -- -- -- -- -- -- -- --
2019-11-21 04:00:00 -- -- -- -- -- -- -- -- --
2019-11-21 03:00:00 -- -- -- -- -- -- -- -- --
2019-11-21 02:00:00 -- -- -- -- -- -- -- -- --
2019-11-21 01:00:00 -- -- -- -- -- -- -- -- --
2019-11-21 00:00:00 -- -- -- -- -- -- -- -- --
2019-11-20 23:00:00 -- -- -- -- -- -- -- -- --
2019-11-20 22:00:00 -- -- -- -- -- -- -- -- --
2019-11-20 21:00:00 -- -- -- -- -- -- -- -- --
2019-11-20 20:00:00 -- -- -- -- -- -- -- -- --
2019-11-20 19:00:00 12 16 Sur 28 Sur 0 -- -- 89
2019-11-20 18:00:00 12.7 18 Sur 40 Sudoeste 0 -- -- 87
2019-11-20 17:00:00 13.5 24 Sur 51 Sudoeste 0 -- -- 84
2019-11-20 16:00:00 14 33 Sur 52 Sur 0 -- -- 81
2019-11-20 15:00:00 14.5 33 Sur 53 Sur 0 -- -- 83
2019-11-20 14:00:00 13.7 24 Sur 46 Sudeste 0.2 -- -- 84
2019-11-20 13:00:00 13.1 19 Sur 48 Sur 0 -- -- 88
2019-11-20 12:00:00 12.5 26 Sur 45 Sur 0.2 -- -- 91
2019-11-20 11:00:00 12 17 Sur 28 Sur 0.2 -- -- 92
2019-11-20 10:00:00 11.4 15 Sur 26 Sur 0 -- -- 89
2019-11-20 09:00:00 10.3 12 Sudeste 18 Sur 0 -- -- 90
2019-11-20 08:00:00 10.1 9 Sudeste 18 Sudeste 0.2 -- -- 86
2019-11-20 07:00:00 9.3 10 Sudeste 16 Sudeste 0 -- -- 79
2019-11-20 06:00:00 7.7 12 Sudeste 15 Sudeste 0 -- -- 82
2019-11-20 05:00:00 7.4 11 Sudeste 13 Sudeste 0 -- -- 85
2019-11-20 04:00:00 4.6 2 Sur 4 Sudoeste 0 -- -- 88
2019-11-20 03:00:00 4.9 3 Sur 4 Sudoeste 0 -- -- 87
2019-11-20 02:00:00 6.9 0 Calma 5 Sudoeste 0 -- -- 84
2019-11-20 01:00:00 7.8 4 Sur 6 Sudoeste 0 -- -- 86
2019-11-20 00:00:00 6.8 2 Sudoeste 4 Sudoeste 0 -- -- 83
2019-11-19 23:00:00 8.8 2 Sur 6 Sur 0 -- -- 78
2019-11-19 22:00:00 10.1 4 Sudoeste 5 Sudoeste 0 -- -- 72
2019-11-19 21:00:00 11.8 3 Sudoeste 6 Sudoeste 0 -- -- 65
2019-11-19 20:00:00 12.6 3 Sudoeste 6 Sudoeste 0 -- -- 63
2019-11-19 19:00:00 13.5 0 Calma 6 Noroeste 0 -- -- 62
2019-11-19 18:00:00 15 3 Oeste 10 Oeste 0 -- -- 55
2019-11-19 17:00:00 16.5 4 Sudoeste 14 Oeste 0 -- -- 47
2019-11-19 16:00:00 17.2 5 Oeste 14 Sudoeste 0 -- -- 46
2019-11-19 15:00:00 16.9 3 Sudoeste 12 Sudoeste 0 -- -- 51
2019-11-19 14:00:00 17.1 6 Sudeste 13 Sudeste 0 -- -- 54
2019-11-19 13:00:00 15.1 4 Oeste 15 Oeste 0 -- -- 63
2019-11-19 12:00:00 15.4 5 Oeste 15 Sudoeste 0 -- -- 64
2019-11-19 11:00:00 14.9 7 Sur 16 Sudoeste 0 -- -- 66
2019-11-19 10:00:00 11.9 6 Sur 12 Sudoeste 0 -- -- 76
2019-11-19 09:00:00 6.5 8 Sudeste 10 Sudeste 0 -- -- 91
2019-11-19 08:00:00 5.4 6 Sudeste 8 Sudeste 0 -- -- 89
2019-11-19 07:00:00 5.9 3 Sudeste 8 Sudeste 0 -- -- 87
2019-11-19 06:00:00 7.6 2 Sur 18 Sudeste 0 -- -- 81
2019-11-19 05:00:00 9.2 12 Sudeste 18 Sudeste 0 -- -- 78
2019-11-19 04:00:00 7.8 4 Sudeste 10 Este 0 -- -- 83
2019-11-19 03:00:00 8.1 8 Sudeste 12 Sudeste 0 -- -- 85
2019-11-19 02:00:00 6.7 4 Sudeste 11 Este 0 -- -- 85
2019-11-19 01:00:00 7.2 7 Este 12 Sudeste 0 -- -- 81
2019-11-19 00:00:00 7.4 4 Sudeste 8 Sudeste 0 -- -- 79
2019-11-18 23:00:00 8 3 Sur 6 Sudoeste 0 -- -- 78
2019-11-18 22:00:00 8.6 0 Calma 6 Sur 0 -- -- 75
2019-11-18 21:00:00 8.9 4 Sur 6 Sur 0 -- -- 72
2019-11-18 20:00:00 9.9 3 Sur 9 Sur 0 -- -- 67
2019-11-18 19:00:00 11.2 4 Sudeste 8 Sudeste 0 -- -- 63
2019-11-18 18:00:00 13.8 3 Este 4 Norte 0 -- -- 59
2019-11-18 17:00:00 16.3 5 Nordeste 12 Noroeste 0 -- -- 48
2019-11-18 16:00:00 16.7 4 Nordeste 15 Noroeste 0 -- -- 50
2019-11-18 15:00:00 16 8 Noroeste 19 Noroeste 0 -- -- 52
2019-11-18 14:00:00 15.2 4 Norte 18 Noroeste 0 -- -- 56
2019-11-18 13:00:00 13.9 8 Norte 19 Noroeste 0 -- -- 59
2019-11-18 12:00:00 12.6 11 Norte 22 Noroeste 0 -- -- 64
2019-11-18 11:00:00 10.8 13 Noroeste 19 Noroeste 0 -- -- 75
2019-11-18 10:00:00 9.2 11 Noroeste 19 Noroeste 0 -- -- 83
2019-11-18 09:00:00 7 5 Noroeste 15 Oeste 0 -- -- 88
2019-11-18 08:00:00 7.4 6 Oeste 13 Noroeste 0 -- -- 87
2019-11-18 07:00:00 7.4 9 Noroeste 21 Noroeste 0 -- -- 85
2019-11-18 06:00:00 8.7 12 Noroeste 22 Noroeste 0 -- -- 81
2019-11-18 05:00:00 10.4 13 Noroeste 45 Noroeste 0 -- -- 75
2019-11-18 04:00:00 12.3 18 Noroeste 51 Noroeste 0 -- -- 75
2019-11-18 03:00:00 14.9 24 Oeste 45 Noroeste 0 -- -- 89
2019-11-18 02:00:00 14.9 8 Sudoeste 24 Sudoeste 0 -- -- 90
2019-11-18 01:00:00 14.8 6 Sudoeste 25 Sudoeste 0 -- -- 91
2019-11-18 00:00:00 14.7 6 Oeste 19 Oeste 0 -- -- 90
2019-11-17 23:00:00 14.6 5 Sudoeste 17 Oeste 0 -- -- 91
2019-11-17 22:00:00 14.4 6 Sudoeste 21 Sudoeste 0 -- -- 92
2019-11-17 21:00:00 14.9 6 Sudoeste 25 Sudoeste 0 -- -- 90
2019-11-17 20:00:00 15.1 6 Sudoeste 22 Sudoeste 0 -- -- 89
2019-11-17 19:00:00 15.3 8 Sudoeste 23 Sudoeste 0 -- -- 87
2019-11-17 18:00:00 15.9 7 Sudoeste 18 Oeste 0 -- -- 83
2019-11-17 17:00:00 16.4 6 Oeste 23 Sur 0 -- -- 80
2019-11-17 16:00:00 16.1 15 Sur 23 Sur 0 -- -- 84
2019-11-17 15:00:00 13.3 15 Sur 30 Sudoeste 0 -- -- 89
2019-11-17 14:00:00 12 19 Sur 31 Sur 0 -- -- 91
2019-11-17 13:00:00 11 15 Sur 27 Sur 0.2 -- -- 89
2019-11-17 12:00:00 10.4 15 Sur 29 Sur 0 -- -- 89
2019-11-17 11:00:00 10.2 12 Sur 19 Sur 0 -- -- 83
2019-11-17 10:00:00 9.2 8 Sur 17 Sudeste 0 -- -- 83
2019-11-17 09:00:00 8.5 9 Sudeste 14 Sudeste 0 -- -- 82
2019-11-17 08:00:00 7.9 6 Sur 10 Sur 0 -- -- 76
2019-11-17 07:00:00 6.8 5 Sur 10 Sur 0 -- -- 78
2019-11-17 06:00:00 5.8 5 Sur 10 Sur 0 -- -- 80
2019-11-17 05:00:00 5.9 5 Sur 10 Sudoeste 0 -- -- 78
2019-11-17 04:00:00 6.1 5 Sudoeste 8 Sudoeste 0 -- -- 79
2019-11-17 03:00:00 6.1 5 Sur 8 Sudoeste 0 -- -- 82
2019-11-17 02:00:00 6.6 6 Sur 10 Sur 0 -- -- 81
2019-11-17 01:00:00 6.8 5 Sudoeste 8 Sudoeste 0 -- -- 82
2019-11-17 00:00:00 7.2 4 Sur 8 Sur 0 -- -- 81
2019-11-16 23:00:00 8 5 Sur 8 Sudoeste 0 -- -- 78
2019-11-16 22:00:00 8.2 5 Sur 9 Sudoeste 0 -- -- 75
2019-11-16 21:00:00 8.8 5 Sudoeste 9 Sudoeste 0 -- -- 70
2019-11-16 20:00:00 9.3 5 Sur 10 Sur 0 -- -- 66
2019-11-16 19:00:00 10.7 5 Sur 9 Sudoeste 0 -- -- 61
2019-11-16 18:00:00 12.9 2 Sudoeste 12 Oeste 0 -- -- 51
2019-11-16 17:00:00 14.6 4 Oeste 24 Noroeste 0 -- -- 45
2019-11-16 16:00:00 14.5 13 Noroeste 24 Noroeste 0 -- -- 45
2019-11-16 15:00:00 13.7 10 Noroeste 20 Noroeste 0 -- -- 48
2019-11-16 14:00:00 13.1 3 Sudoeste 11 Noroeste 0 -- -- 49
2019-11-16 13:00:00 11.5 5 Noroeste 14 Noroeste 0 -- -- 53
2019-11-16 12:00:00 10.6 5 Norte 12 Noroeste 0 -- -- 57
2019-11-16 11:00:00 7.7 3 Noroeste 8 Noroeste 0 -- -- 69
2019-11-16 10:00:00 5.3 0 Calma 3 Noroeste 0 -- -- 83
2019-11-16 09:00:00 1.9 4 Sudeste 9 Sudeste 0 -- -- 93
2019-11-16 08:00:00 0.6 3 Sur 5 Sudoeste 0 -- -- 91
2019-11-16 07:00:00 1.4 4 Sur 5 Sur 0 -- -- 88
2019-11-16 06:00:00 3.1 3 Sudoeste 6 Oeste 0 -- -- 85
2019-11-16 05:00:00 3.7 4 Sudoeste 7 Oeste 0 -- -- 80
2019-11-16 04:00:00 4.6 3 Sudoeste 8 Oeste 0 -- -- 76
2019-11-16 03:00:00 5.1 4 Sudoeste 11 Oeste 0 -- -- 73
2019-11-16 02:00:00 5.7 4 Oeste 14 Oeste 0 -- -- 70
2019-11-16 01:00:00 6.4 5 Oeste 13 Oeste 0 -- -- 65
2019-11-16 00:00:00 6.8 4 Oeste 11 Oeste 0 -- -- 63
2019-11-15 23:00:00 7.5 5 Oeste 11 Oeste 0 -- -- 61
2019-11-15 22:00:00 8.5 3 Oeste 10 Noroeste 0 -- -- 59
2019-11-15 21:00:00 9.6 8 Noroeste 23 Noroeste 0 -- -- 55
2019-11-15 20:00:00 11.7 17 Noroeste 25 Noroeste 0 -- -- 51
2019-11-15 19:00:00 11.9 5 Noroeste 11 Noroeste 0 -- -- 50
2019-11-15 18:00:00 12.8 7 Noroeste 25 Noroeste 0 -- -- 47
2019-11-15 17:00:00 13.5 13 Noroeste 34 Noroeste 0 -- -- 45
2019-11-15 16:00:00 13.9 17 Noroeste 30 Noroeste 0 -- -- 43
2019-11-15 15:00:00 13.2 18 Noroeste 30 Noroeste 0 -- -- 45
2019-11-15 14:00:00 13 10 Noroeste 29 Noroeste 0 -- -- 48
2019-11-15 13:00:00 12.2 15 Noroeste 31 Oeste 0 -- -- 51
2019-11-15 12:00:00 11.5 12 Noroeste 28 Noroeste 0 -- -- 59
2019-11-15 11:00:00 10.5 16 Noroeste 28 Oeste 0 -- -- 69
2019-11-15 10:00:00 8.9 13 Oeste 23 Oeste 0 -- -- 76
2019-11-15 09:00:00 7.7 10 Oeste 19 Oeste 0 -- -- 80
2019-11-15 08:00:00 7.5 9 Oeste 21 Oeste 0 -- -- 80
2019-11-15 07:00:00 7.5 10 Oeste 21 Oeste 0 -- -- 81
2019-11-15 06:00:00 7.8 6 Oeste 17 Oeste 0 -- -- 80
2019-11-15 05:00:00 8 4 Oeste 15 Oeste 0 -- -- 80
2019-11-15 04:00:00 8.6 6 Oeste 22 Oeste 0 -- -- 80
2019-11-15 03:00:00 9.2 8 Oeste 22 Oeste 0 -- -- 77
2019-11-15 02:00:00 9.7 7 Oeste 25 Oeste 0 -- -- 79
2019-11-15 01:00:00 9.9 14 Oeste 24 Oeste 0 -- -- 79
2019-11-15 00:00:00 9.5 6 Sudoeste 14 Oeste 0 -- -- 80
2019-11-14 23:00:00 9.9 4 Oeste 14 Oeste 0 -- -- 78
2019-11-14 22:00:00 10.4 5 Oeste 19 Oeste 0 -- -- 76
2019-11-14 21:00:00 10.6 5 Oeste 22 Oeste 0 -- -- 73
2019-11-14 20:00:00 11 10 Oeste 26 Oeste 0 -- -- 72
2019-11-14 19:00:00 12 11 Oeste 24 Oeste 0 -- -- 69
2019-11-14 18:00:00 12.7 17 Noroeste 38 Oeste 0 -- -- 66
2019-11-14 17:00:00 14 20 Noroeste 31 Noroeste 0 -- -- 66
2019-11-14 16:00:00 13.6 23 Noroeste 36 Noroeste 0 -- -- 66
2019-11-14 15:00:00 13.3 22 Noroeste 37 Noroeste 0.2 -- -- 79
2019-11-14 14:00:00 13.6 25 Noroeste 42 Noroeste 0 -- -- 80
2019-11-14 13:00:00 13.5 21 Noroeste 41 Noroeste 0.2 -- -- 84
2019-11-14 12:00:00 14.5 19 Oeste 37 Oeste 0 -- -- 78
2019-11-14 11:00:00 14.8 5 Oeste 21 Sur 0 -- -- 77
2019-11-14 10:00:00 14 7 Sudoeste 16 Sudoeste 0 -- -- 77
2019-11-14 09:00:00 12.2 3 Sudoeste 15 Sudoeste 0 -- -- 83
2019-11-14 08:00:00 10.9 5 Sudoeste 13 Sudoeste 0 -- -- 89
2019-11-14 07:00:00 10.5 6 Sudoeste 17 Oeste 0 -- -- 88
2019-11-14 06:00:00 10.2 5 Sudoeste 18 Noroeste 0 -- -- 90
2019-11-14 05:00:00 10.6 10 Oeste 18 Oeste 0 -- -- 89
2019-11-14 04:00:00 10.9 7 Oeste 16 Oeste 0 -- -- 91
2019-11-14 03:00:00 11.9 6 Oeste 14 Sudoeste 0 -- -- 91
2019-11-14 02:00:00 12.7 5 Sudoeste 15 Sudoeste 0 -- -- 89
2019-11-14 01:00:00 13.5 5 Sudoeste 10 Sudoeste 0 -- -- 90
2019-11-14 00:00:00 14.4 4 Sudoeste 13 Sudoeste 0 -- -- 90
2019-11-13 23:00:00 15 6 Sudoeste 13 Sur 0 -- -- 88
2019-11-13 22:00:00 15.5 3 Sudoeste 12 Sur 0 -- -- 86
2019-11-13 21:00:00 16 4 Sudoeste 15 Sudoeste 0 -- -- 84
2019-11-13 20:00:00 16.4 5 Sudoeste 14 Sur 0 -- -- 84
2019-11-13 19:00:00 16.7 4 Sudoeste 13 Oeste 0 -- -- 82
2019-11-13 18:00:00 17.9 5 Oeste 17 Sudoeste 0 -- -- 74
2019-11-13 17:00:00 19.9 6 Oeste 28 Oeste 0 -- -- 67
2019-11-13 16:00:00 19.7 9 Oeste 27 Noroeste 0 -- -- 67
2019-11-13 15:00:00 19.7 8 Oeste 25 Oeste 0 -- -- 67
2019-11-13 14:00:00 18.5 12 Oeste 30 Noroeste 0 -- -- 72
2019-11-13 13:00:00 17.6 10 Oeste 30 Noroeste 0 -- -- 76
2019-11-13 12:00:00 17.8 6 Oeste 27 Oeste 0 -- -- 72
2019-11-13 11:00:00 17 8 Oeste 24 Sudoeste 0 -- -- 77
2019-11-13 10:00:00 15.8 5 Sudoeste 18 Sudoeste 0 -- -- 85
2019-11-13 09:00:00 15 3 Sudoeste 15 Oeste 0 -- -- 86
2019-11-13 08:00:00 14.4 5 Sudoeste 15 Oeste 0 -- -- 90
2019-11-13 07:00:00 14.3 4 Oeste 12 Sudoeste 0 -- -- 88
2019-11-13 06:00:00 13.9 6 Sur 12 Sudoeste 0 -- -- 88
2019-11-13 05:00:00 13.8 3 Sudoeste 11 Oeste 0 -- -- 84
2019-11-13 04:00:00 13.8 4 Oeste 12 Oeste 0 -- -- 81
2019-11-13 03:00:00 12.9 7 Sur 13 Oeste 0 -- -- 80
2019-11-13 02:00:00 12.5 5 Oeste 17 Oeste 0 -- -- 77
2019-11-13 01:00:00 12 6 Oeste 14 Oeste 0 -- -- 77
2019-11-13 00:00:00 11.6 4 Sudoeste 11 Oeste 0 -- -- 73
2019-11-12 23:00:00 12.2 6 Sudoeste 12 Oeste 0 -- -- 68
2019-11-12 22:00:00 13 5 Noroeste 12 Noroeste 0 -- -- 63
2019-11-12 21:00:00 13.6 5 Sudoeste 15 Oeste 0 -- -- 63
2019-11-12 20:00:00 14.9 9 Oeste 25 Oeste 0 -- -- 56
2019-11-12 19:00:00 15.5 6 Sudoeste 17 Sudoeste 0 -- -- 58
2019-11-12 18:00:00 17.4 3 Sudoeste 17 Noroeste 0 -- -- 52
2019-11-12 17:00:00 19.2 9 Noroeste 19 Oeste 0 -- -- 47
2019-11-12 16:00:00 19 8 Noroeste 24 Noroeste 0 -- -- 46
2019-11-12 15:00:00 18.6 11 Noroeste 22 Noroeste 0 -- -- 50
2019-11-12 14:00:00 17.6 8 Noroeste 16 Noroeste 0 -- -- 61
2019-11-12 13:00:00 16.8 6 Norte 15 Norte 0 -- -- 64
2019-11-12 12:00:00 15.3 7 Norte 17 Norte 0 -- -- 71
2019-11-12 11:00:00 12.9 5 Noroeste 10 Noroeste 0 -- -- 88
2019-11-12 10:00:00 10.1 0 Calma 3 Norte 0 -- -- 98
2019-11-12 09:00:00 8.8 0 Calma 7 Sudoeste 0 -- -- 98
2019-11-12 08:00:00 8.6 3 Sudoeste 8 Sudoeste 0 -- -- 97
2019-11-12 07:00:00 8 3 Sur 4 Sudoeste 0 -- -- 97
2019-11-12 06:00:00 8.5 0 Calma 4 Sudoeste 0 -- -- 96
2019-11-12 05:00:00 9 2 Sur 4 Sudeste 0 -- -- 95
2019-11-12 04:00:00 10 2 Noroeste 4 Noroeste 0 -- -- 95
2019-11-12 03:00:00 11 0 Calma 6 Oeste 0 -- -- 95
2019-11-12 02:00:00 11 2 Oeste 5 Norte 0 -- -- 94
2019-11-12 01:00:00 12.6 0 Calma 6 Sudoeste 0 -- -- 91
2019-11-12 00:00:00 14 5 Sudoeste 15 Sudoeste 0 -- -- 90
2019-11-11 23:00:00 14.8 5 Oeste 12 Oeste 0 -- -- 90
2019-11-11 22:00:00 15.2 3 Oeste 10 Noroeste 0 -- -- 90
2019-11-11 21:00:00 15.3 5 Sudoeste 10 Oeste 0 -- -- 87
2019-11-11 20:00:00 16.3 3 Sudoeste 10 Sudoeste 0 -- -- 83
2019-11-11 19:00:00 16.8 3 Oeste 17 Oeste 0 -- -- 80
2019-11-11 18:00:00 17.2 3 Oeste 18 Oeste 0 -- -- 80
2019-11-11 17:00:00 17.3 6 Oeste 20 Oeste 0 -- -- 81
2019-11-11 16:00:00 17.5 10 Oeste 23 Oeste 0 -- -- 79
2019-11-11 15:00:00 16.9 12 Oeste 20 Noroeste 0 -- -- 79
2019-11-11 14:00:00 16 10 Noroeste 19 Oeste 0 -- -- 80
2019-11-11 13:00:00 15.7 8 Oeste 14 Noroeste 0 -- -- 78
2019-11-11 12:00:00 15.1 3 Sudoeste 12 Sudoeste 0 -- -- 79
2019-11-11 11:00:00 14.2 2 Oeste 9 Noroeste 0 -- -- 81
2019-11-11 10:00:00 13.3 0 Calma 4 Sudoeste 0 -- -- 87
2019-11-11 09:00:00 12.5 0 Calma 5 Sudoeste 0 -- -- 91
2019-11-11 08:00:00 12.2 0 Calma 8 Noroeste 0 -- -- 91
2019-11-11 07:00:00 12.1 4 Noroeste 14 Oeste 0 -- -- 91
2019-11-11 06:00:00 12.1 9 Noroeste 17 Oeste 0 -- -- 90
2019-11-11 05:00:00 12.1 10 Noroeste 26 Oeste 0 -- -- 88
2019-11-11 04:00:00 12.2 14 Noroeste 28 Noroeste 0 -- -- 85
2019-11-11 03:00:00 12.9 20 Noroeste 31 Noroeste 0 -- -- 78
2019-11-11 02:00:00 12.9 17 Noroeste 27 Noroeste 0 -- -- 76
2019-11-11 01:00:00 12.9 19 Noroeste 38 Noroeste 0 -- -- 76
2019-11-11 00:00:00 13.1 22 Noroeste 34 Noroeste 0 -- -- 73